Time;durP1;ratioP1;P1;durP2;ratioP2;P2;SDS_P1;SDS_P2;PMS_P1;PMS_P2;Temp;Humidity;BMP_temperature;BMP_pressure;BME280_temperature;BME280_humidity;BME280_pressure;Samples;Min_cycle;Max_cycle;Signal;HPM_P1;HPM_P2
2023/07/09 00:00:40;;;;;;;13.45;5.72;;;16.00;99.90;;;;;;5013066;23;20046;-79
2023/07/09 00:03:06;;;;;;;14.73;6.13;;;16.00;99.90;;;;;;5004515;28;20512;-79
2023/07/09 00:05:31;;;;;;;10.60;5.88;;;16.00;99.90;;;;;;5001099;28;20018;-79
2023/07/09 00:07:57;;;;;;;10.73;5.63;;;15.90;99.90;;;;;;5007878;28;20053;-79
2023/07/09 00:10:23;;;;;;;12.93;6.05;;;15.90;99.90;;;;;;4993395;28;20470;-79
2023/07/09 00:12:48;;;;;;;19.20;6.90;;;15.90;99.90;;;;;;5007217;28;20458;-80
2023/07/09 00:15:15;;;;;;;14.45;6.97;;;15.80;99.90;;;;;;5006651;28;20049;-80
2023/07/09 00:17:41;;;;;;;16.45;6.47;;;15.80;99.90;;;;;;5004316;28;20366;-79
2023/07/09 00:20:14;;;;;;;23.02;6.57;;;15.80;99.90;;;;;;5006412;28;20517;-79
2023/07/09 00:22:41;;;;;;;14.50;6.40;;;15.80;99.90;;;;;;5007929;28;20469;-79
2023/07/09 00:25:16;;;;;;;16.13;6.60;;;15.80;99.90;;;;;;5008349;28;20088;-79
2023/07/09 00:27:44;;;;;;;21.00;7.47;;;15.80;99.90;;;;;;5005673;28;20084;-79
2023/07/09 00:30:18;;;;;;;16.13;7.30;;;15.80;99.90;;;;;;5006352;28;20128;-79
2023/07/09 00:32:44;;;;;;;16.17;6.50;;;15.80;99.90;;;;;;5007890;28;20105;-80
2023/07/09 00:35:15;;;;;;;19.05;6.60;;;15.80;99.90;;;;;;5006698;28;20113;-79
2023/07/09 00:37:44;;;;;;;16.50;7.10;;;15.80;99.90;;;;;;5008746;28;20482;-80
2023/07/09 00:40:22;;;;;;;15.60;6.63;;;15.70;99.90;;;;;;4989649;28;20366;-80
2023/07/09 00:42:52;;;;;;;15.00;6.47;;;15.80;99.90;;;;;;4997688;28;20034;-79
2023/07/09 00:45:24;;;;;;;13.93;6.63;;;15.80;99.90;;;;;;4993576;28;20030;-79
2023/07/09 00:47:53;;;;;;;13.60;6.97;;;15.80;99.90;;;;;;4990481;28;20037;-79
2023/07/09 00:50:41;;;;;;;12.68;6.60;;;15.80;99.90;;;;;;4993380;28;20406;-80
2023/07/09 00:53:18;;;;;;;12.27;6.47;;;15.90;99.90;;;;;;4988367;28;20032;-79
2023/07/09 00:55:46;;;;;;;17.63;6.72;;;15.90;99.90;;;;;;4987504;28;20065;-79
2023/07/09 00:58:15;;;;;;;14.13;5.95;;;15.90;99.90;;;;;;4993172;28;20022;-79
2023/07/09 01:00:49;;;;;;;16.17;7.32;;;16.00;99.90;;;;;;5005612;23;20058;-81
2023/07/09 01:03:22;;;;;;;14.77;6.07;;;15.90;99.90;;;;;;4992132;28;20046;-81
2023/07/09 01:05:51;;;;;;;20.00;6.85;;;16.00;99.90;;;;;;4993031;28;20360;-81
2023/07/09 01:08:19;;;;;;;14.40;6.07;;;15.90;99.90;;;;;;4992274;28;20398;-81
2023/07/09 01:10:45;;;;;;;14.85;7.15;;;16.00;99.90;;;;;;4992751;28;20030;-81
2023/07/09 01:13:11;;;;;;;13.18;6.35;;;16.00;99.90;;;;;;4975790;28;20045;-80
2023/07/09 01:15:37;;;;;;;22.40;7.97;;;16.00;99.90;;;;;;4992297;28;20159;-81
2023/07/09 01:18:04;;;;;;;20.52;6.40;;;16.10;99.90;;;;;;4992323;28;20026;-81
2023/07/09 01:20:30;;;;;;;12.95;5.70;;;16.10;99.90;;;;;;4992676;28;20089;-81
2023/07/09 01:22:56;;;;;;;13.60;5.30;;;16.10;99.90;;;;;;4974915;28;20030;-81
2023/07/09 01:25:23;;;;;;;18.67;5.55;;;16.10;99.90;;;;;;4991891;28;20065;-81
2023/07/09 01:27:50;;;;;;;21.75;5.72;;;16.10;99.90;;;;;;4992084;28;20070;-81
2023/07/09 01:30:23;;;;;;;14.90;5.55;;;16.10;99.90;;;;;;4992335;28;20033;-81
2023/07/09 01:32:55;;;;;;;9.25;4.53;;;16.20;99.90;;;;;;4991728;28;20021;-81
2023/07/09 01:35:21;;;;;;;15.02;5.65;;;16.20;99.90;;;;;;4992056;28;20022;-81
2023/07/09 01:37:48;;;;;;;15.85;5.60;;;16.20;99.90;;;;;;4992129;28;20026;-81
2023/07/09 01:40:16;;;;;;;10.95;5.60;;;16.10;99.90;;;;;;4992645;28;20070;-81
2023/07/09 01:42:42;;;;;;;11.90;5.80;;;16.10;99.90;;;;;;4992352;28;20521;-81
2023/07/09 01:45:10;;;;;;;11.27;5.30;;;16.10;99.90;;;;;;4992132;28;20072;-81
2023/07/09 01:47:36;;;;;;;14.82;6.25;;;16.00;99.90;;;;;;4991894;28;20061;-81
2023/07/09 01:50:03;;;;;;;11.13;5.72;;;16.00;99.90;;;;;;4991606;28;20027;-81
2023/07/09 01:52:31;;;;;;;11.35;5.85;;;16.00;99.90;;;;;;4991645;28;20046;-81
2023/07/09 01:54:57;;;;;;;9.77;5.32;;;16.00;99.90;;;;;;4989811;28;20101;-80
2023/07/09 01:57:33;;;;;;;14.00;5.75;;;15.90;99.90;;;;;;4985220;28;20098;-81
2023/07/09 02:00:01;;;;;;;15.70;6.25;;;15.90;99.90;;;;;;4974225;28;20030;-81
2023/07/09 02:02:27;;;;;;;17.10;5.38;;;15.90;99.90;;;;;;4991146;28;20045;-81
2023/07/09 02:04:55;;;;;;;26.95;6.82;;;16.00;99.90;;;;;;4974773;28;20030;-81
2023/07/09 02:07:23;;;;;;;17.88;6.20;;;15.90;99.90;;;;;;4991271;28;20022;-81
2023/07/09 02:09:49;;;;;;;17.10;5.95;;;15.90;99.90;;;;;;4991349;28;20076;-81
2023/07/09 02:12:16;;;;;;;20.10;6.07;;;16.00;99.90;;;;;;4991601;28;20030;-83
2023/07/09 02:14:44;;;;;;;14.60;6.00;;;15.90;99.90;;;;;;4991816;28;20037;-81
2023/07/09 02:17:11;;;;;;;14.45;5.78;;;15.90;99.90;;;;;;4991445;28;20018;-81
2023/07/09 02:19:37;;;;;;;22.80;6.13;;;15.80;99.90;;;;;;4991753;28;20474;-84
2023/07/09 02:22:03;;;;;;;30.42;6.85;;;15.80;99.90;;;;;;4991739;28;20081;-84
2023/07/09 02:24:29;;;;;;;21.85;6.22;;;15.70;99.90;;;;;;4991582;28;20022;-83
2023/07/09 02:26:55;;;;;;;21.52;5.78;;;15.70;99.90;;;;;;4991444;28;20027;-83
2023/07/09 02:29:21;;;;;;;23.95;6.45;;;15.60;99.90;;;;;;4991668;28;20500;-83
2023/07/09 02:31:49;;;;;;;23.52;5.72;;;15.50;99.90;;;;;;4985319;23;20437;-83
2023/07/09 02:34:15;;;;;;;26.38;6.28;;;15.50;99.90;;;;;;4937804;28;20060;-83
2023/07/09 02:36:42;;;;;;;23.77;6.43;;;15.40;99.90;;;;;;4933852;28;20475;-82
2023/07/09 02:39:13;;;;;;;24.17;5.57;;;15.40;99.90;;;;;;4941077;28;20024;-83
2023/07/09 02:41:42;;;;;;;20.80;5.63;;;15.30;99.90;;;;;;4950439;28;20034;-83
2023/07/09 02:44:08;;;;;;;22.45;5.65;;;15.20;99.90;;;;;;4951707;28;20045;-84
2023/07/09 02:46:34;;;;;;;18.40;5.70;;;15.10;99.90;;;;;;4951789;28;20027;-83
2023/07/09 02:49:00;;;;;;;28.95;5.45;;;15.10;99.90;;;;;;4952090;28;20042;-83
2023/07/09 02:51:29;;;;;;;20.45;5.90;;;15.10;99.90;;;;;;4952089;28;20023;-83
2023/07/09 02:53:57;;;;;;;21.65;5.25;;;15.10;99.90;;;;;;4952360;28;20034;-84
2023/07/09 02:56:24;;;;;;;18.23;4.82;;;15.10;99.90;;;;;;4952226;28;20070;-83
2023/07/09 02:58:52;;;;;;;18.08;5.50;;;15.10;99.90;;;;;;4952360;28;20031;-82
2023/07/09 03:01:20;;;;;;;25.45;5.22;;;15.10;99.90;;;;;;4952364;28;20699;-83
2023/07/09 03:03:45;;;;;;;15.57;4.40;;;15.10;99.90;;;;;;4952240;28;20468;-83
2023/07/09 03:06:11;;;;;;;20.25;6.03;;;15.10;99.90;;;;;;4952312;28;20026;-83
2023/07/09 03:08:37;;;;;;;18.75;5.60;;;15.20;99.90;;;;;;4952210;28;20070;-83
2023/07/09 03:11:14;;;;;;;17.27;5.93;;;15.20;99.90;;;;;;4951440;28;20028;-83
2023/07/09 03:13:39;;;;;;;14.13;5.53;;;15.20;99.90;;;;;;4951418;28;20106;-83
2023/07/09 03:16:05;;;;;;;19.25;5.18;;;15.20;99.90;;;;;;4951937;28;20106;-83
2023/07/09 03:18:31;;;;;;;16.38;5.82;;;15.20;99.90;;;;;;4950625;28;20019;-82
2023/07/09 03:20:58;;;;;;;9.55;4.57;;;15.30;99.90;;;;;;4952349;28;20110;-83
2023/07/09 03:23:24;;;;;;;12.77;4.90;;;15.20;99.90;;;;;;4951094;28;20031;-83
2023/07/09 03:25:49;;;;;;;15.30;5.40;;;15.30;99.90;;;;;;4950934;28;20114;-83
2023/07/09 03:28:15;;;;;;;14.23;4.95;;;15.30;99.90;;;;;;4952251;28;20166;-83
2023/07/09 03:30:43;;;;;;;21.17;4.97;;;15.20;99.90;;;;;;4964592;23;20027;-79
2023/07/09 03:33:10;;;;;;;13.68;4.90;;;15.30;99.90;;;;;;4939261;28;20399;-79
2023/07/09 03:35:36;;;;;;;13.02;5.55;;;15.30;99.90;;;;;;4944912;28;20015;-79
2023/07/09 03:38:02;;;;;;;17.02;5.85;;;15.20;99.90;;;;;;4933951;28;20020;-79
2023/07/09 03:40:27;;;;;;;12.32;5.15;;;15.20;99.90;;;;;;4946513;28;20074;-78
2023/07/09 03:42:53;;;;;;;11.45;4.95;;;15.30;99.90;;;;;;4944244;28;20031;-79
2023/07/09 03:45:19;;;;;;;21.35;5.72;;;15.30;99.90;;;;;;4934812;28;20054;-78
2023/07/09 03:47:45;;;;;;;22.42;5.00;;;15.30;99.90;;;;;;4935319;28;20036;-78
2023/07/09 03:50:11;;;;;;;25.92;6.00;;;15.30;99.90;;;;;;4944653;28;20085;-78
2023/07/09 03:52:37;;;;;;;16.30;5.38;;;15.30;99.90;;;;;;4939087;28;20016;-79
2023/07/09 03:55:06;;;;;;;24.48;6.32;;;15.30;99.90;;;;;;4937638;28;20110;-79
2023/07/09 03:57:32;;;;;;;11.05;4.78;;;15.30;99.90;;;;;;4937251;28;20027;-79
2023/07/09 03:59:57;;;;;;;20.38;5.05;;;15.30;99.90;;;;;;4937178;28;20357;-79
2023/07/09 04:02:23;;;;;;;25.80;5.38;;;15.30;99.90;;;;;;4937452;28;20479;-79
2023/07/09 04:04:48;;;;;;;18.70;6.30;;;15.30;99.90;;;;;;4937190;28;20024;-78
2023/07/09 04:07:15;;;;;;;19.45;5.00;;;15.30;99.90;;;;;;4944214;28;20082;-79
2023/07/09 04:09:40;;;;;;;11.40;4.25;;;15.30;99.90;;;;;;4941579;28;20035;-79
2023/07/09 04:12:07;;;;;;;12.68;3.72;;;15.30;99.90;;;;;;4936730;28;20030;-79
2023/07/09 04:14:32;;;;;;;12.90;4.55;;;15.30;99.90;;;;;;4937164;28;20484;-79
2023/07/09 04:16:58;;;;;;;18.85;4.97;;;15.30;99.90;;;;;;4937201;28;20083;-79
2023/07/09 04:19:24;;;;;;;19.50;4.72;;;15.30;99.90;;;;;;4936824;28;20030;-79
2023/07/09 04:21:50;;;;;;;17.05;5.28;;;15.40;99.90;;;;;;4940202;28;20034;-80
2023/07/09 04:24:20;;;;;;;17.08;4.80;;;15.40;99.90;;;;;;4936682;28;20106;-80
2023/07/09 04:26:46;;;;;;;15.90;5.50;;;15.40;99.90;;;;;;4936616;28;20388;-79
2023/07/09 04:29:13;;;;;;;16.60;5.05;;;15.50;99.90;;;;;;4936150;28;20039;-79
2023/07/09 04:31:39;;;;;;;16.20;5.43;;;15.50;99.90;;;;;;4936115;28;20450;-79
2023/07/09 04:34:06;;;;;;;17.08;4.80;;;15.60;99.90;;;;;;4935105;28;20040;-79
2023/07/09 04:36:32;;;;;;;19.67;5.63;;;15.60;99.90;;;;;;4936180;28;20016;-79
2023/07/09 04:38:58;;;;;;;12.57;4.47;;;15.60;99.90;;;;;;4936528;28;20551;-80
2023/07/09 04:41:23;;;;;;;18.92;5.25;;;15.70;99.90;;;;;;4936593;28;20147;-79
2023/07/09 04:43:49;;;;;;;20.27;5.32;;;15.70;99.90;;;;;;4935153;28;20377;-79
2023/07/09 04:46:15;;;;;;;17.65;5.32;;;15.80;99.90;;;;;;4936583;28;20027;-79
2023/07/09 04:48:41;;;;;;;13.38;5.35;;;15.80;99.90;;;;;;4936135;28;20032;-79
2023/07/09 04:51:07;;;;;;;16.58;5.00;;;15.80;99.90;;;;;;4947764;28;20031;-79
2023/07/09 04:53:32;;;;;;;8.80;4.45;;;15.80;99.90;;;;;;4935368;28;20027;-79
2023/07/09 04:55:58;;;;;;;14.65;4.95;;;15.90;99.90;;;;;;4936203;28;20027;-79
2023/07/09 04:58:24;;;;;;;18.58;5.30;;;15.80;99.90;;;;;;4948237;28;20059;-79
2023/07/09 05:00:52;;;;;;;13.60;4.75;;;15.80;99.90;;;;;;4943060;28;20023;-79
2023/07/09 05:03:19;;;;;;;16.48;4.55;;;15.80;99.90;;;;;;4940594;28;20032;-79
2023/07/09 05:05:46;;;;;;;17.63;5.03;;;15.90;99.90;;;;;;4935917;28;20023;-80
2023/07/09 05:08:13;;;;;;;16.17;3.97;;;15.90;99.90;;;;;;4935574;28;20102;-79
2023/07/09 05:10:46;;;;;;;17.80;4.60;;;15.90;99.90;;;;;;4938057;28;20020;-79
2023/07/09 05:13:12;;;;;;;11.05;3.67;;;15.90;99.90;;;;;;4935765;28;20024;-79
2023/07/09 05:15:44;;;;;;;14.25;4.05;;;16.00;99.90;;;;;;4938765;28;20497;-79
2023/07/09 05:18:10;;;;;;;16.58;4.03;;;16.00;99.90;;;;;;4943224;28;20024;-79
2023/07/09 05:20:35;;;;;;;18.27;4.85;;;16.00;99.90;;;;;;4935984;28;20019;-79
2023/07/09 05:23:01;;;;;;;13.40;4.38;;;16.10;99.90;;;;;;4935874;28;20035;-79
2023/07/09 05:25:27;;;;;;;21.35;4.70;;;16.10;99.90;;;;;;4935565;28;20531;-79
2023/07/09 05:27:52;;;;;;;16.08;4.30;;;16.00;99.90;;;;;;4936013;28;20469;-79
2023/07/09 05:32:57;;;;;;;20.67;4.55;;;16.10;99.90;;;;;;4976828;28;20618;-84
2023/07/09 05:35:25;;;;;;;11.18;4.00;;;16.10;99.90;;;;;;4971994;28;20026;-85
2023/07/09 05:37:51;;;;;;;17.88;6.78;;;16.10;99.90;;;;;;4955896;28;20035;-84
2023/07/09 05:40:17;;;;;;;9.80;3.85;;;16.10;99.90;;;;;;4972590;28;20027;-83
2023/07/09 05:42:42;;;;;;;8.18;4.10;;;16.30;99.90;;;;;;4972695;28;20022;-82
2023/07/09 05:45:08;;;;;;;12.25;3.85;;;16.40;99.90;;;;;;4972841;28;20447;-84
2023/07/09 05:47:34;;;;;;;11.35;4.10;;;16.50;99.90;;;;;;4972430;28;20395;-84
2023/07/09 05:50:00;;;;;;;14.15;4.35;;;16.70;99.90;;;;;;4972752;28;20035;-83
2023/07/09 05:52:25;;;;;;;7.53;4.18;;;16.90;99.90;;;;;;4972949;28;20022;-84
2023/07/09 05:54:52;;;;;;;14.02;4.00;;;17.00;99.90;;;;;;4972373;28;20023;-84
2023/07/09 05:57:18;;;;;;;14.45;4.38;;;17.10;99.90;;;;;;4972282;28;20102;-84
2023/07/09 05:59:44;;;;;;;13.07;3.85;;;17.20;99.90;;;;;;4955487;28;20102;-84
2023/07/09 06:02:20;;;;;;;7.93;3.72;;;17.30;99.90;;;;;;4971990;28;20056;-85
2023/07/09 06:04:48;;;;;;;12.00;3.63;;;17.20;99.90;;;;;;4972155;28;20027;-85
2023/07/09 06:07:14;;;;;;;12.20;4.00;;;17.30;99.90;;;;;;4965773;28;20011;-84
2023/07/09 06:09:40;;;;;;;15.25;4.18;;;17.30;99.90;;;;;;4954428;28;20038;-85
2023/07/09 06:12:06;;;;;;;11.27;3.25;;;17.40;99.90;;;;;;4954961;28;20029;-85
2023/07/09 06:14:32;;;;;;;18.60;4.03;;;17.40;99.80;;;;;;4972486;28;20026;-84
2023/07/09 06:16:59;;;;;;;10.52;4.05;;;17.60;99.90;;;;;;4970988;28;20019;-83
2023/07/09 06:19:25;;;;;;;12.68;3.75;;;17.70;99.90;;;;;;4971800;28;20471;-83
2023/07/09 06:21:51;;;;;;;9.43;3.35;;;17.90;99.10;;;;;;4967918;28;20038;-85
2023/07/09 06:24:16;;;;;;;15.07;3.30;;;18.00;98.70;;;;;;4950094;28;20027;-84
2023/07/09 06:26:42;;;;;;;13.93;3.15;;;18.10;98.20;;;;;;4968242;28;20033;-83
2023/07/09 06:29:08;;;;;;;13.73;3.78;;;18.10;97.60;;;;;;4970213;28;20430;-83
2023/07/09 06:31:33;;;;;;;9.90;3.00;;;18.10;97.80;;;;;;4987524;23;20051;-76
2023/07/09 06:33:59;;;;;;;8.05;2.65;;;18.10;97.80;;;;;;4971995;28;20023;-77
2023/07/09 06:36:25;;;;;;;11.25;2.88;;;18.10;97.80;;;;;;4954299;28;20089;-77
2023/07/09 06:38:51;;;;;;;8.68;2.72;;;18.10;98.10;;;;;;4972199;28;20023;-77
2023/07/09 06:41:17;;;;;;;10.55;3.75;;;18.10;96.80;;;;;;4971820;28;20483;-76
2023/07/09 06:43:42;;;;;;;7.00;3.05;;;18.10;97.90;;;;;;4970857;28;20019;-77
2023/07/09 06:46:11;;;;;;;7.88;2.92;;;18.20;97.50;;;;;;4961210;28;20049;-76
2023/07/09 06:48:37;;;;;;;16.92;3.15;;;18.20;97.70;;;;;;4971748;28;20030;-76
2023/07/09 06:51:03;;;;;;;10.02;3.03;;;18.20;96.40;;;;;;4971783;28;20125;-77
2023/07/09 06:53:29;;;;;;;11.95;2.58;;;18.10;98.40;;;;;;4970766;28;20446;-76
2023/07/09 06:55:58;;;;;;;8.55;2.55;;;18.10;97.80;;;;;;4971627;28;20027;-76
2023/07/09 06:58:27;;;;;;;8.35;2.67;;;18.00;98.20;;;;;;4971854;28;20039;-77
2023/07/09 07:00:53;;;;;;;9.93;3.13;;;18.00;98.00;;;;;;4971686;28;20011;-76
2023/07/09 07:03:19;;;;;;;7.07;3.13;;;18.00;98.10;;;;;;4971443;28;20037;-77
2023/07/09 07:05:47;;;;;;;7.38;2.83;;;18.10;97.30;;;;;;4972283;28;20019;-76
2023/07/09 07:08:15;;;;;;;17.27;3.35;;;18.20;97.70;;;;;;4954118;28;20027;-77
2023/07/09 07:10:42;;;;;;;11.50;2.40;;;18.50;96.40;;;;;;4971045;28;20458;-76
2023/07/09 07:13:08;;;;;;;12.13;2.72;;;18.70;95.40;;;;;;4971493;28;20021;-77
2023/07/09 07:15:36;;;;;;;7.25;2.90;;;18.90;95.10;;;;;;4972134;28;20046;-77
2023/07/09 07:18:02;;;;;;;9.25;2.38;;;19.10;94.80;;;;;;4971648;28;20019;-76
2023/07/09 07:20:28;;;;;;;9.68;2.97;;;19.20;94.40;;;;;;4953855;28;20387;-77
2023/07/09 07:22:53;;;;;;;9.13;2.25;;;19.30;93.60;;;;;;4973863;28;20027;-77
2023/07/09 07:25:19;;;;;;;7.18;2.67;;;19.30;92.90;;;;;;4975008;28;20471;-77
2023/07/09 07:27:45;;;;;;;10.95;4.45;;;19.40;93.80;;;;;;4974921;28;20043;-77
2023/07/09 07:30:11;;;;;;;8.48;2.60;;;19.50;93.00;;;;;;4973618;28;20474;-77
2023/07/09 07:32:38;;;;;;;12.70;3.47;;;19.60;92.30;;;;;;4974619;28;20027;-76
2023/07/09 07:35:04;;;;;;;6.05;2.28;;;19.70;91.40;;;;;;4976649;28;20032;-77
2023/07/09 07:37:30;;;;;;;13.70;2.78;;;19.80;91.60;;;;;;4977754;28;20550;-78
2023/07/09 07:39:55;;;;;;;11.05;2.40;;;19.80;92.10;;;;;;4973146;28;20031;-79
2023/07/09 07:42:21;;;;;;;5.93;2.30;;;19.70;90.40;;;;;;4977024;28;20031;-78
2023/07/09 07:44:47;;;;;;;6.03;2.15;;;19.70;90.80;;;;;;4975234;28;20022;-77
2023/07/09 07:47:13;;;;;;;10.60;2.58;;;19.60;89.00;;;;;;4957008;28;20030;-79
2023/07/09 07:49:39;;;;;;;6.53;2.28;;;19.50;91.60;;;;;;4973392;28;20165;-79
2023/07/09 07:52:05;;;;;;;5.65;2.13;;;19.40;91.30;;;;;;4972642;28;20383;-79
2023/07/09 07:54:34;;;;;;;7.03;2.20;;;19.40;91.00;;;;;;4974179;28;20046;-79
2023/07/09 07:57:00;;;;;;;9.90;2.17;;;19.50;92.30;;;;;;4972916;28;20049;-79
2023/07/09 07:59:25;;;;;;;7.82;2.47;;;19.50;91.40;;;;;;4973251;28;20027;-79
2023/07/09 08:01:51;;;;;;;12.20;2.78;;;19.50;91.50;;;;;;4990612;23;20050;-86
2023/07/09 08:04:17;;;;;;;6.00;2.30;;;19.50;92.40;;;;;;4957690;28;20323;-84
2023/07/09 08:06:42;;;;;;;4.90;2.15;;;19.40;92.30;;;;;;4974296;28;20026;-84
2023/07/09 08:09:08;;;;;;;9.07;2.60;;;19.30;93.50;;;;;;4974612;28;20043;-84
2023/07/09 08:11:34;;;;;;;12.98;3.33;;;19.20;93.40;;;;;;4974590;28;20030;-83
2023/07/09 08:14:00;;;;;;;9.25;2.45;;;19.30;93.00;;;;;;4973863;28;20027;-84
2023/07/09 08:16:26;;;;;;;9.23;2.63;;;19.50;92.50;;;;;;4974274;28;20475;-84
2023/07/09 08:18:52;;;;;;;8.27;2.17;;;19.60;91.30;;;;;;4956496;28;20479;-83
2023/07/09 08:21:18;;;;;;;10.32;2.47;;;19.70;90.50;;;;;;4974302;28;20034;-84
2023/07/09 08:23:45;;;;;;;7.40;2.00;;;20.00;90.40;;;;;;4974148;28;20027;-83
2023/07/09 08:26:10;;;;;;;10.80;2.47;;;20.00;90.60;;;;;;4973774;28;20023;-84
2023/07/09 08:28:38;;;;;;;5.05;2.50;;;20.10;91.70;;;;;;4973407;28;20390;-84
2023/07/09 08:31:03;;;;;;;10.90;2.70;;;20.10;90.50;;;;;;4973491;28;20023;-84
2023/07/09 08:33:30;;;;;;;23.23;4.00;;;20.10;89.30;;;;;;4954564;28;20434;-83
2023/07/09 08:35:56;;;;;;;11.45;3.10;;;19.90;87.90;;;;;;4973357;28;20627;-83
2023/07/09 08:38:22;;;;;;;7.45;2.50;;;19.80;90.40;;;;;;4974236;28;20019;-83
2023/07/09 08:41:01;;;;;;;12.63;2.58;;;19.80;87.90;;;;;;4973798;28;20051;-84
2023/07/09 08:43:45;;;;;;;9.38;2.45;;;19.70;85.60;;;;;;4973268;28;20384;-84
2023/07/09 08:46:43;;;;;;;8.23;2.28;;;19.50;90.20;;;;;;4973766;28;20058;-84
2023/07/09 08:49:20;;;;;;;9.95;2.85;;;19.30;91.20;;;;;;4967552;28;20058;-83
2023/07/09 08:51:47;;;;;;;9.93;3.05;;;19.20;91.30;;;;;;4972724;28;20023;-83
2023/07/09 08:54:35;;;;;;;7.30;2.65;;;19.20;90.60;;;;;;4973634;28;20077;-84
2023/07/09 08:57:19;;;;;;;11.55;2.65;;;19.20;91.50;;;;;;4972970;28;20145;-84
2023/07/09 08:59:45;;;;;;;13.07;2.67;;;19.10;92.20;;;;;;4956200;28;20501;-84
2023/07/09 09:02:41;;;;;;;11.68;2.85;;;19.00;92.50;;;;;;4987149;23;20056;-78
2023/07/09 09:05:08;;;;;;;12.05;4.03;;;19.00;92.30;;;;;;4972367;28;20069;-80
2023/07/09 09:07:40;;;;;;;10.23;2.53;;;19.10;91.80;;;;;;4972146;28;20015;-81
2023/07/09 09:10:14;;;;;;;14.35;3.10;;;19.00;92.30;;;;;;4966701;28;20031;-80
2023/07/09 09:13:05;;;;;;;8.25;2.30;;;19.00;92.90;;;;;;4954347;28;20015;-80
2023/07/09 09:15:32;;;;;;;11.27;2.95;;;19.20;93.60;;;;;;4971954;28;20448;-80
2023/07/09 09:18:14;;;;;;;5.68;2.28;;;19.30;92.90;;;;;;4972298;28;20029;-80
2023/07/09 09:20:41;;;;;;;7.10;2.22;;;19.40;92.00;;;;;;4972509;28;20019;-80
2023/07/09 09:23:06;;;;;;;8.63;2.40;;;19.70;92.20;;;;;;4972653;28;20116;-80
2023/07/09 09:28:08;;;;;;;10.13;2.67;;;20.10;90.20;;;;;;4692383;26;20421;-81
2023/07/09 09:30:34;;;;;;;11.57;2.80;;;20.20;90.50;;;;;;4990173;28;20027;-84
2023/07/09 09:33:01;;;;;;;10.68;3.28;;;20.40;88.70;;;;;;4973890;28;20696;-81
2023/07/09 09:35:37;;;;;;;11.38;2.08;;;20.50;86.90;;;;;;4974586;28;20370;-84
2023/07/09 09:38:15;;;;;;;12.45;2.58;;;20.60;84.10;;;;;;4989891;28;20553;-83
2023/07/09 09:40:41;;;;;;;7.07;2.38;;;21.00;87.30;;;;;;4992418;28;20034;-83
2023/07/09 09:43:17;;;;;;;11.73;2.70;;;21.30;83.70;;;;;;4973704;28;20053;-84
2023/07/09 09:45:44;;;;;;;10.52;2.70;;;21.50;83.60;;;;;;4991440;28;20651;-83
2023/07/09 09:48:30;;;;;;;9.80;2.47;;;22.00;81.80;;;;;;4991642;28;20466;-84
2023/07/09 09:51:00;;;;;;;11.73;2.58;;;22.40;80.30;;;;;;4991504;28;20022;-84
2023/07/09 09:53:28;;;;;;;13.55;3.00;;;22.70;80.10;;;;;;4991892;28;20093;-83
2023/07/09 09:55:56;;;;;;;11.55;3.47;;;22.90;79.10;;;;;;4991882;28;20129;-82
2023/07/09 09:58:28;;;;;;;11.77;2.38;;;23.10;75.50;;;;;;4992285;28;20521;-84
2023/07/09 10:00:57;;;;;;;12.75;2.88;;;23.30;73.00;;;;;;4991610;28;20119;-84
2023/07/09 10:03:33;;;;;;;12.98;3.10;;;23.50;74.10;;;;;;4991480;28;20030;-83
2023/07/09 10:06:06;;;;;;;8.70;2.85;;;23.70;74.70;;;;;;4993208;28;20030;-85
2023/07/09 10:08:40;;;;;;;10.40;3.20;;;23.50;73.40;;;;;;4991429;28;20038;-85
2023/07/09 10:11:20;;;;;;;10.65;2.92;;;23.50;73.10;;;;;;4974378;28;20505;-86
2023/07/09 10:13:48;;;;;;;10.85;2.92;;;23.40;75.70;;;;;;4968570;28;20053;-85
2023/07/09 10:16:23;;;;;;;5.78;2.28;;;23.50;74.60;;;;;;4990415;28;20010;-85
2023/07/09 10:18:59;;;;;;;8.75;2.42;;;23.30;72.30;;;;;;4991271;28;20156;-82
2023/07/09 10:22:07;;;;;;;8.27;2.60;;;24.00;72.00;;;;;;4991190;28;20102;-82
2023/07/09 10:25:06;;;;;;;12.68;2.25;;;24.70;65.80;;;;;;4908794;29;20038;-82
2023/07/09 10:27:52;;;;;;;6.97;2.15;;;25.20;65.80;;;;;;4973923;23;20648;-83
2023/07/09 10:30:27;;;;;;;6.78;1.92;;;25.40;60.10;;;;;;4971281;28;20031;-84
2023/07/09 10:33:01;;;;;;;6.95;2.20;;;25.50;58.80;;;;;;4966183;28;20119;-82
2023/07/09 10:36:15;;;;;;;11.40;1.98;;;25.40;59.80;;;;;;4971420;28;20014;-83
2023/07/09 10:39:05;;;;;;;5.78;2.00;;;25.30;61.10;;;;;;4915314;29;20037;-83
2023/07/09 10:41:31;;;;;;;9.70;2.35;;;24.80;60.20;;;;;;4931245;29;20031;-83
2023/07/09 10:44:17;;;;;;;6.55;2.67;;;24.30;60.60;;;;;;4956458;28;20038;-83
2023/07/09 10:46:49;;;;;;;5.05;1.90;;;24.00;59.90;;;;;;4971716;28;20533;-83
2023/07/09 10:49:15;;;;;;;;;;;23.80;61.80;;;;;;4971969;28;20037;-84
2023/07/09 10:51:50;;;;;;;7.93;2.50;;;23.60;61.80;;;;;;4971704;28;19906;-84
2023/07/09 10:54:32;;;;;;;7.30;2.53;;;23.30;59.70;;;;;;4971395;28;20085;-83
2023/07/09 10:57:05;;;;;;;;;;;22.90;65.20;;;;;;4974101;28;20015;-84
2023/07/09 10:59:34;;;;;;;5.80;2.17;;;22.50;64.60;;;;;;4975377;28;19961;-82
2023/07/09 11:02:24;;;;;;;10.20;2.47;;;22.40;67.10;;;;;;4975881;28;20559;-83
2023/07/09 11:04:54;;;;;;;5.85;1.90;;;22.50;68.60;;;;;;4970980;28;20019;-83
2023/07/09 11:07:35;;;;;;;8.55;2.03;;;22.50;67.30;;;;;;4975862;28;20047;-82
2023/07/09 11:10:05;;;;;;;9.75;1.83;;;22.90;71.10;;;;;;4969402;28;20065;-83
2023/07/09 11:12:42;;;;;;;11.07;2.20;;;23.40;70.10;;;;;;4974373;28;20114;-83
2023/07/09 11:15:13;;;;;;;11.60;1.92;;;24.00;66.40;;;;;;4975153;28;20015;-83
2023/07/09 11:17:42;;;;;;;7.15;2.28;;;24.20;65.10;;;;;;4974294;28;20497;-84
2023/07/09 11:20:36;;;;;;;4.82;1.83;;;24.40;65.40;;;;;;4975716;28;20035;-83
2023/07/09 11:23:07;;;;;;;6.95;2.20;;;24.40;61.60;;;;;;4970425;28;20038;-82
2023/07/09 11:28:06;;;;;;;8.40;1.58;;;24.90;62.90;;;;;;4987365;28;20050;-85
2023/07/09 11:30:32;;;;;;;5.70;1.60;;;25.20;60.00;;;;;;4975559;28;20022;-84
2023/07/09 11:33:01;;;;;;;10.13;2.00;;;25.30;57.00;;;;;;4976116;28;20437;-83
2023/07/09 11:35:44;;;;;;;7.88;2.08;;;25.20;58.00;;;;;;4987348;28;20065;-86
2023/07/09 11:38:18;;;;;;;6.15;2.25;;;25.20;60.00;;;;;;4987611;28;20033;-83
2023/07/09 11:40:55;;;;;;;7.90;1.88;;;25.00;59.70;;;;;;4994914;28;20017;-83
2023/07/09 11:43:48;;;;;;;10.80;3.17;;;25.10;57.50;;;;;;4994212;28;20046;-82
2023/07/09 11:46:20;;;;;;;13.23;2.85;;;25.30;59.00;;;;;;4991589;28;20077;-82
2023/07/09 11:48:48;;;;;;;9.75;1.85;;;25.30;56.40;;;;;;4994289;28;20073;-82
2023/07/09 11:51:23;;;;;;;10.38;2.30;;;25.40;56.60;;;;;;4993849;28;20080;-82
2023/07/09 11:53:52;;;;;;;9.30;2.38;;;25.70;53.70;;;;;;4994472;28;20558;-83
2023/07/09 11:56:23;;;;;;;6.63;1.92;;;25.80;56.50;;;;;;4990802;28;20026;-82
2023/07/09 11:58:56;;;;;;;7.00;2.13;;;26.20;55.70;;;;;;4974426;28;20018;-82
2023/07/09 12:01:44;;;;;;;6.78;1.85;;;26.10;54.60;;;;;;4993636;28;20029;-82
2023/07/09 12:04:17;;;;;;;11.38;2.65;;;26.10;55.90;;;;;;4993786;28;20049;-81
2023/07/09 12:06:44;;;;;;;6.00;1.90;;;26.40;55.70;;;;;;4993792;28;20018;-80
2023/07/09 12:09:18;;;;;;;8.25;2.22;;;26.50;54.90;;;;;;4991977;28;20042;-85
2023/07/09 12:11:47;;;;;;;9.43;2.38;;;26.30;54.80;;;;;;4992482;28;20427;-82
2023/07/09 12:14:15;;;;;;;8.73;2.03;;;26.20;57.50;;;;;;4974823;28;20459;-84
2023/07/09 12:16:45;;;;;;;9.68;2.20;;;26.30;58.10;;;;;;4992161;28;20033;-83
2023/07/09 12:19:16;;;;;;;11.55;2.35;;;26.30;56.90;;;;;;4992819;28;20098;-82
2023/07/09 12:21:48;;;;;;;8.40;2.28;;;26.30;60.20;;;;;;4992428;28;20026;-83
2023/07/09 12:24:26;;;;;;;8.55;2.35;;;26.00;59.20;;;;;;4993047;28;20102;-83
2023/07/09 12:26:58;;;;;;;8.02;1.85;;;25.90;59.10;;;;;;5003786;23;20046;-83
2023/07/09 12:29:34;;;;;;;9.20;2.53;;;25.90;57.80;;;;;;4977895;28;20031;-84
2023/07/09 12:32:06;;;;;;;8.35;2.42;;;25.80;56.90;;;;;;4975029;28;20027;-83
2023/07/09 12:34:32;;;;;;;27.25;12.88;;;26.00;58.40;;;;;;4974136;28;20029;-83
2023/07/09 12:36:58;;;;;;;11.30;2.40;;;26.30;60.20;;;;;;4973286;28;20118;-83
2023/07/09 12:39:31;;;;;;;9.70;2.40;;;26.50;56.70;;;;;;4958715;28;20027;-83
2023/07/09 12:42:00;;;;;;;12.23;2.65;;;26.10;55.40;;;;;;4955866;28;20031;-83
2023/07/09 12:44:28;;;;;;;12.45;2.63;;;25.50;58.90;;;;;;4980373;28;20031;-83
2023/07/09 12:46:54;;;;;;;9.50;2.28;;;25.40;59.60;;;;;;4963904;28;20082;-82
2023/07/09 12:49:29;;;;;;;10.18;2.47;;;25.40;61.70;;;;;;4979641;28;20434;-83
2023/07/09 12:52:02;;;;;;;8.57;1.98;;;25.10;58.90;;;;;;4970957;28;20031;-84
2023/07/09 12:54:29;;;;;;;8.50;1.90;;;25.10;60.10;;;;;;4972338;28;20027;-84
2023/07/09 12:56:58;;;;;;;6.93;1.67;;;25.20;60.40;;;;;;4971960;28;20023;-83
2023/07/09 12:59:27;;;;;;;8.95;2.25;;;25.00;59.30;;;;;;4971141;28;20026;-83